sensor_id;sensor_type;location;lat;lon;timestamp;pressure;altitude;pressure_sealevel;temperature;humidity
47883;BME280;37739;50.350;7.578;2023-12-20T00:00:01;99664.81;;;5.24;100.00
47883;BME280;37739;50.350;7.578;2023-12-20T00:02:27;99658.69;;;5.21;100.00
47883;BME280;37739;50.350;7.578;2023-12-20T00:04:54;99666.50;;;5.24;100.00
47883;BME280;37739;50.350;7.578;2023-12-20T00:07:19;99669.91;;;5.24;100.00
47883;BME280;37739;50.350;7.578;2023-12-20T00:09:47;99669.91;;;5.24;100.00
47883;BME280;37739;50.350;7.578;2023-12-20T00:12:12;99676.69;;;5.24;100.00
47883;BME280;37739;50.350;7.578;2023-12-20T00:14:38;99675.00;;;5.24;100.00
47883;BME280;37739;50.350;7.578;2023-12-20T00:17:05;99669.91;;;5.24;100.00
47883;BME280;37739;50.350;7.578;2023-12-20T00:19:31;99662.28;;;5.24;100.00
47883;BME280;37739;50.350;7.578;2023-12-20T00:21:56;99667.47;;;5.26;100.00
47883;BME280;37739;50.350;7.578;2023-12-20T00:24:26;99672.63;;;5.27;100.00
47883;BME280;37739;50.350;7.578;2023-12-20T00:26:51;99674.38;;;5.28;100.00
47883;BME280;37739;50.350;7.578;2023-12-20T00:29:17;99664.28;;;5.30;100.00
47883;BME280;37739;50.350;7.578;2023-12-20T00:31:44;99656.75;;;5.31;100.00
47883;BME280;37739;50.350;7.578;2023-12-20T00:34:12;99649.81;;;5.29;100.00
47883;BME280;37739;50.350;7.578;2023-12-20T00:36:39;99660.78;;;5.28;100.00
47883;BME280;37739;50.350;7.578;2023-12-20T00:39:09;99658.34;;;5.29;100.00
47883;BME280;37739;50.350;7.578;2023-12-20T00:41:34;99660.78;;;5.28;100.00
47883;BME280;37739;50.350;7.578;2023-12-20T00:43:59;99662.53;;;5.29;100.00
47883;BME280;37739;50.350;7.578;2023-12-20T00:46:28;99667.56;;;5.27;100.00
47883;BME280;37739;50.350;7.578;2023-12-20T00:48:53;99655.69;;;5.28;100.00
47883;BME280;37739;50.350;7.578;2023-12-20T00:51:18;99656.56;;;5.28;100.00
47883;BME280;37739;50.350;7.578;2023-12-20T00:53:50;99657.44;;;5.29;100.00
47883;BME280;37739;50.350;7.578;2023-12-20T00:56:20;99656.47;;;5.27;100.00
47883;BME280;37739;50.350;7.578;2023-12-20T00:58:48;99656.47;;;5.27;100.00
47883;BME280;37739;50.350;7.578;2023-12-20T01:01:18;99651.56;;;5.30;100.00
47883;BME280;37739;50.350;7.578;2023-12-20T01:03:43;99650.00;;;5.32;100.00
47883;BME280;37739;50.350;7.578;2023-12-20T01:06:09;99655.94;;;5.32;100.00
47883;BME280;37739;50.350;7.578;2023-12-20T01:08:36;99657.72;;;5.34;100.00
47883;BME280;37739;50.350;7.578;2023-12-20T01:11:04;99656.03;;;5.34;100.00
47883;BME280;37739;50.350;7.578;2023-12-20T01:13:30;99658.50;;;5.32;100.00
47883;BME280;37739;50.350;7.578;2023-12-20T01:15:55;99650.16;;;5.35;100.00
47883;BME280;37739;50.350;7.578;2023-12-20T01:18:23;99648.50;;;5.36;100.00
47883;BME280;37739;50.350;7.578;2023-12-20T01:20:48;99657.88;;;5.37;100.00
47883;BME280;37739;50.350;7.578;2023-12-20T01:23:14;99653.69;;;5.37;100.00
47883;BME280;37739;50.350;7.578;2023-12-20T01:25:41;99656.13;;;5.36;100.00
47883;BME280;37739;50.350;7.578;2023-12-20T01:28:09;99649.53;;;5.39;100.00
47883;BME280;37739;50.350;7.578;2023-12-20T01:30:34;99652.09;;;5.39;100.00
47883;BME280;37739;50.350;7.578;2023-12-20T01:33:02;99644.28;;;5.36;100.00
47883;BME280;37739;50.350;7.578;2023-12-20T01:35:30;99643.56;;;5.39;100.00
47883;BME280;37739;50.350;7.578;2023-12-20T01:37:56;99636.00;;;5.40;100.00
47883;BME280;37739;50.350;7.578;2023-12-20T01:40:24;99646.19;;;5.40;100.00
47883;BME280;37739;50.350;7.578;2023-12-20T01:43:07;99657.41;;;5.44;100.00
47883;BME280;37739;50.350;7.578;2023-12-20T01:45:33;99654.09;;;5.45;100.00
47883;BME280;37739;50.350;7.578;2023-12-20T01:47:59;99653.19;;;5.44;100.00
47883;BME280;37739;50.350;7.578;2023-12-20T01:50:25;99657.41;;;5.44;100.00
47883;BME280;37739;50.350;7.578;2023-12-20T01:52:52;99656.78;;;5.48;100.00
47883;BME280;37739;50.350;7.578;2023-12-20T01:55:23;99654.25;;;5.48;100.00
47883;BME280;37739;50.350;7.578;2023-12-20T01:57:54;99655.91;;;5.47;100.00
47883;BME280;37739;50.350;7.578;2023-12-20T02:00:21;99658.56;;;5.49;100.00
47883;BME280;37739;50.350;7.578;2023-12-20T02:02:53;99666.00;;;5.46;100.00
47883;BME280;37739;50.350;7.578;2023-12-20T02:05:18;99663.66;;;5.49;100.00
47883;BME280;37739;50.350;7.578;2023-12-20T02:07:46;99662.94;;;5.51;100.00
47883;BME280;37739;50.350;7.578;2023-12-20T02:10:13;99664.69;;;5.53;100.00
47883;BME280;37739;50.350;7.578;2023-12-20T02:12:38;99673.97;;;5.52;100.00
47883;BME280;37739;50.350;7.578;2023-12-20T02:15:04;99676.69;;;5.55;100.00
47883;BME280;37739;50.350;7.578;2023-12-20T02:17:31;99680.97;;;5.56;100.00
47883;BME280;37739;50.350;7.578;2023-12-20T02:19:57;99683.53;;;5.56;100.00
47883;BME280;37739;50.350;7.578;2023-12-20T02:22:22;99679.16;;;5.54;100.00
47883;BME280;37739;50.350;7.578;2023-12-20T02:24:47;99683.28;;;5.51;100.00
47883;BME280;37739;50.350;7.578;2023-12-20T02:27:13;99692.59;;;5.51;100.00
47883;BME280;37739;50.350;7.578;2023-12-20T02:29:40;99703.53;;;5.50;100.00
47883;BME280;37739;50.350;7.578;2023-12-20T02:32:05;99707.00;;;5.50;100.00
47883;BME280;37739;50.350;7.578;2023-12-20T02:34:36;99694.34;;;5.52;100.00
47883;BME280;37739;50.350;7.578;2023-12-20T02:37:01;99696.81;;;5.50;100.00
47883;BME280;37739;50.350;7.578;2023-12-20T02:39:27;99695.22;;;5.53;100.00
47883;BME280;37739;50.350;7.578;2023-12-20T02:41:52;99700.47;;;5.56;100.00
47883;BME280;37739;50.350;7.578;2023-12-20T02:44:19;99707.16;;;5.54;100.00
47883;BME280;37739;50.350;7.578;2023-12-20T02:46:45;99704.50;;;5.52;100.00
47883;BME280;37739;50.350;7.578;2023-12-20T02:49:10;99701.00;;;5.50;100.00
47883;BME280;37739;50.350;7.578;2023-12-20T02:51:37;99696.09;;;5.53;100.00
47883;BME280;37739;50.350;7.578;2023-12-20T02:54:05;99699.41;;;5.52;100.00
47883;BME280;37739;50.350;7.578;2023-12-20T02:56:35;99700.38;;;5.54;100.00
47883;BME280;37739;50.350;7.578;2023-12-20T02:59:00;99698.78;;;5.56;100.00
47883;BME280;37739;50.350;7.578;2023-12-20T03:01:29;99707.16;;;5.54;100.00
47883;BME280;37739;50.350;7.578;2023-12-20T03:03:56;99708.97;;;5.56;100.00
47883;BME280;37739;50.350;7.578;2023-12-20T03:06:22;99715.81;;;5.57;100.00
47883;BME280;37739;50.350;7.578;2023-12-20T03:08:47;99717.50;;;5.57;100.00
47883;BME280;37739;50.350;7.578;2023-12-20T03:11:12;99732.69;;;5.55;100.00
47883;BME280;37739;50.350;7.578;2023-12-20T03:13:38;99741.19;;;5.56;100.00
47883;BME280;37739;50.350;7.578;2023-12-20T03:16:10;99736.97;;;5.56;100.00
47883;BME280;37739;50.350;7.578;2023-12-20T03:18:36;99742.25;;;5.59;100.00
47883;BME280;37739;50.350;7.578;2023-12-20T03:21:01;99751.63;;;5.60;100.00
47883;BME280;37739;50.350;7.578;2023-12-20T03:23:29;99755.06;;;5.61;100.00
47883;BME280;37739;50.350;7.578;2023-12-20T03:26:00;99767.97;;;5.49;100.00
47883;BME280;37739;50.350;7.578;2023-12-20T03:28:29;99774.72;;;5.34;100.00
47883;BME280;37739;50.350;7.578;2023-12-20T03:30:55;99774.81;;;5.20;100.00
47883;BME280;37739;50.350;7.578;2023-12-20T03:33:20;99761.66;;;5.13;100.00
47883;BME280;37739;50.350;7.578;2023-12-20T03:35:45;99776.56;;;5.06;100.00
47883;BME280;37739;50.350;7.578;2023-12-20T03:38:13;99774.53;;;5.01;100.00
47883;BME280;37739;50.350;7.578;2023-12-20T03:40:40;99775.22;;;4.98;100.00
47883;BME280;37739;50.350;7.578;2023-12-20T03:43:06;99772.81;;;4.86;100.00
47883;BME280;37739;50.350;7.578;2023-12-20T03:45:31;99771.19;;;4.87;100.00
47883;BME280;37739;50.350;7.578;2023-12-20T03:47:59;99773.44;;;4.82;100.00
47883;BME280;37739;50.350;7.578;2023-12-20T03:50:27;99775.88;;;4.81;100.00
47883;BME280;37739;50.350;7.578;2023-12-20T03:52:54;99778.25;;;4.78;100.00
47883;BME280;37739;50.350;7.578;2023-12-20T03:55:22;99784.22;;;4.78;100.00
47883;BME280;37739;50.350;7.578;2023-12-20T03:57:48;99786.19;;;4.69;100.00
47883;BME280;37739;50.350;7.578;2023-12-20T04:00:13;99776.50;;;4.77;100.00
47883;BME280;37739;50.350;7.578;2023-12-20T04:02:42;99784.22;;;4.78;100.00
47883;BME280;37739;50.350;7.578;2023-12-20T04:05:09;99785.38;;;4.83;100.00
47883;BME280;37739;50.350;7.578;2023-12-20T04:07:37;99784.47;;;4.83;100.00
47883;BME280;37739;50.350;7.578;2023-12-20T04:10:03;99782.03;;;4.84;100.00
47883;BME280;37739;50.350;7.578;2023-12-20T04:12:34;99789.75;;;4.86;100.00
47883;BME280;37739;50.350;7.578;2023-12-20T04:15:03;99789.16;;;4.90;100.00
47883;BME280;37739;50.350;7.578;2023-12-20T04:17:34;99779.78;;;4.89;100.00
47883;BME280;37739;50.350;7.578;2023-12-20T04:19:59;99779.69;;;4.87;100.00
47883;BME280;37739;50.350;7.578;2023-12-20T04:22:27;99783.63;;;4.97;100.00
47883;BME280;37739;50.350;7.578;2023-12-20T04:24:52;99782.94;;;5.00;100.00
47883;BME280;37739;50.350;7.578;2023-12-20T04:27:19;99784.50;;;4.98;100.00
47883;BME280;37739;50.350;7.578;2023-12-20T04:29:45;99792.22;;;4.99;100.00
47883;BME280;37739;50.350;7.578;2023-12-20T04:32:12;99800.28;;;4.92;100.00
47883;BME280;37739;50.350;7.578;2023-12-20T04:34:38;99809.06;;;4.97;100.00
47883;BME280;37739;50.350;7.578;2023-12-20T04:37:04;99804.84;;;4.98;100.00
47883;BME280;37739;50.350;7.578;2023-12-20T04:39:31;99806.16;;;5.06;100.00
47883;BME280;37739;50.350;7.578;2023-12-20T04:41:56;99800.75;;;5.15;100.00
47883;BME280;37739;50.350;7.578;2023-12-20T04:44:22;99806.81;;;5.17;100.00
47883;BME280;37739;50.350;7.578;2023-12-20T04:46:49;99795.88;;;5.18;100.00
47883;BME280;37739;50.350;7.578;2023-12-20T04:49:16;99794.09;;;5.17;100.00
47883;BME280;37739;50.350;7.578;2023-12-20T04:51:42;99797.34;;;5.14;100.00
47883;BME280;37739;50.350;7.578;2023-12-20T04:54:07;99799.91;;;5.14;100.00
47883;BME280;37739;50.350;7.578;2023-12-20T04:56:35;99800.84;;;5.16;100.00
47883;BME280;37739;50.350;7.578;2023-12-20T04:59:00;99793.84;;;5.12;100.00
47883;BME280;37739;50.350;7.578;2023-12-20T05:01:28;99801.63;;;5.15;100.00
47883;BME280;37739;50.350;7.578;2023-12-20T05:03:53;99816.78;;;5.14;100.00
47883;BME280;37739;50.350;7.578;2023-12-20T05:06:18;99807.53;;;5.14;100.00
47883;BME280;37739;50.350;7.578;2023-12-20T05:08:48;99806.63;;;5.14;100.00
47883;BME280;37739;50.350;7.578;2023-12-20T05:11:13;99804.00;;;5.12;100.00
47883;BME280;37739;50.350;7.578;2023-12-20T05:13:41;99804.97;;;5.14;100.00
47883;BME280;37739;50.350;7.578;2023-12-20T05:16:06;99799.00;;;5.14;100.00
47883;BME280;37739;50.350;7.578;2023-12-20T05:18:32;99805.41;;;5.07;100.00
47883;BME280;37739;50.350;7.578;2023-12-20T05:20:57;99799.59;;;5.09;100.00
47883;BME280;37739;50.350;7.578;2023-12-20T05:23:25;99806.47;;;5.10;100.00
47883;BME280;37739;50.350;7.578;2023-12-20T05:25:55;99796.09;;;5.07;100.00
47883;BME280;37739;50.350;7.578;2023-12-20T05:28:20;99796.91;;;5.06;100.00
47883;BME280;37739;50.350;7.578;2023-12-20T05:30:46;99801.03;;;5.04;100.00
47883;BME280;37739;50.350;7.578;2023-12-20T05:33:11;99798.38;;;5.03;100.00
47883;BME280;37739;50.350;7.578;2023-12-20T05:35:39;99793.09;;;5.00;100.00
47883;BME280;37739;50.350;7.578;2023-12-20T05:38:07;99787.25;;;5.01;100.00
47883;BME280;37739;50.350;7.578;2023-12-20T05:40:34;99785.56;;;5.01;100.00
47883;BME280;37739;50.350;7.578;2023-12-20T05:43:04;99778.03;;;5.03;99.88
47883;BME280;37739;50.350;7.578;2023-12-20T05:45:30;99793.19;;;5.01;99.96
47883;BME280;37739;50.350;7.578;2023-12-20T05:47:55;99792.34;;;5.01;99.96
47883;BME280;37739;50.350;7.578;2023-12-20T05:50:23;99782.84;;;4.98;100.00
47883;BME280;37739;50.350;7.578;2023-12-20T05:52:51;99797.06;;;4.95;100.00
47883;BME280;37739;50.350;7.578;2023-12-20T05:55:19;99792.22;;;4.99;100.00
47883;BME280;37739;50.350;7.578;2023-12-20T05:57:44;99792.13;;;4.98;100.00
47883;BME280;37739;50.350;7.578;2023-12-20T06:00:10;99798.09;;;4.98;100.00
47883;BME280;37739;50.350;7.578;2023-12-20T06:02:36;99802.22;;;4.96;100.00
47883;BME280;37739;50.350;7.578;2023-12-20T06:05:03;99809.94;;;4.98;100.00
47883;BME280;37739;50.350;7.578;2023-12-20T06:07:29;99810.81;;;4.98;100.00
47883;BME280;37739;50.350;7.578;2023-12-20T06:09:54;99800.47;;;4.95;100.00
47883;BME280;37739;50.350;7.578;2023-12-20T06:12:22;99797.13;;;4.96;100.00
47883;BME280;37739;50.350;7.578;2023-12-20T06:14:50;99806.31;;;4.94;100.00
47883;BME280;37739;50.350;7.578;2023-12-20T06:17:18;99800.19;;;4.90;100.00
47883;BME280;37739;50.350;7.578;2023-12-20T06:19:43;99811.31;;;4.92;100.00
47883;BME280;37739;50.350;7.578;2023-12-20T06:22:15;99809.56;;;4.91;100.00
47883;BME280;37739;50.350;7.578;2023-12-20T06:24:43;99806.94;;;4.90;100.00
47883;BME280;37739;50.350;7.578;2023-12-20T06:27:08;99806.16;;;4.91;100.00
47883;BME280;37739;50.350;7.578;2023-12-20T06:29:33;99819.75;;;4.91;100.00
47883;BME280;37739;50.350;7.578;2023-12-20T06:32:00;99812.13;;;4.91;100.00
47883;BME280;37739;50.350;7.578;2023-12-20T06:34:25;99806.06;;;4.89;100.00
47883;BME280;37739;50.350;7.578;2023-12-20T06:36:50;99821.25;;;5.03;100.00
47883;BME280;37739;50.350;7.578;2023-12-20T06:39:18;99823.34;;;4.95;100.00
47883;BME280;37739;50.350;7.578;2023-12-20T06:41:46;99824.03;;;4.92;100.00
47883;BME280;37739;50.350;7.578;2023-12-20T06:44:13;99824.94;;;4.93;100.00
47883;BME280;37739;50.350;7.578;2023-12-20T06:46:39;99825.81;;;4.94;100.00
47883;BME280;37739;50.350;7.578;2023-12-20T06:49:06;99830.97;;;4.95;100.00
47883;BME280;37739;50.350;7.578;2023-12-20T06:51:31;99832.66;;;4.95;100.00
47883;BME280;37739;50.350;7.578;2023-12-20T06:53:57;99815.53;;;4.92;100.00
47883;BME280;37739;50.350;7.578;2023-12-20T06:56:22;99811.31;;;4.92;100.00
47883;BME280;37739;50.350;7.578;2023-12-20T06:58:50;99813.00;;;4.92;100.00
47883;BME280;37739;50.350;7.578;2023-12-20T07:01:15;99818.88;;;4.91;100.00
47883;BME280;37739;50.350;7.578;2023-12-20T07:03:43;99825.34;;;4.86;100.00
47883;BME280;37739;50.350;7.578;2023-12-20T07:06:13;99826.22;;;4.86;100.00
47883;BME280;37739;50.350;7.578;2023-12-20T07:08:44;99822.78;;;4.86;100.00
47883;BME280;37739;50.350;7.578;2023-12-20T07:11:09;99820.75;;;4.80;100.00
47883;BME280;37739;50.350;7.578;2023-12-20T07:13:40;99822.53;;;4.81;100.00
47883;BME280;37739;50.350;7.578;2023-12-20T07:16:08;99825.25;;;4.84;100.00
47883;BME280;37739;50.350;7.578;2023-12-20T07:18:36;99821.72;;;4.82;100.00
47883;BME280;37739;50.350;7.578;2023-12-20T07:21:03;99820.97;;;4.83;100.00
47883;BME280;37739;50.350;7.578;2023-12-20T07:23:33;99831.03;;;4.82;100.00
47883;BME280;37739;50.350;7.578;2023-12-20T07:26:01;99836.00;;;4.80;100.00
47883;BME280;37739;50.350;7.578;2023-12-20T07:28:29;99833.66;;;4.83;100.00
47883;BME280;37739;50.350;7.578;2023-12-20T07:30:54;99842.16;;;4.84;100.00
47883;BME280;37739;50.350;7.578;2023-12-20T07:33:26;99840.41;;;4.83;100.00
47883;BME280;37739;50.350;7.578;2023-12-20T07:35:55;99846.44;;;4.85;100.00
47883;BME280;37739;50.350;7.578;2023-12-20T07:38:20;99848.91;;;4.83;100.00
47883;BME280;37739;50.350;7.578;2023-12-20T07:40:48;99837.94;;;4.84;100.00
47883;BME280;37739;50.350;7.578;2023-12-20T07:43:16;99846.38;;;4.83;100.00
47883;BME280;37739;50.350;7.578;2023-12-20T07:45:41;99839.63;;;4.84;100.00
47883;BME280;37739;50.350;7.578;2023-12-20T07:48:09;99834.53;;;4.84;100.00
47883;BME280;37739;50.350;7.578;2023-12-20T07:50:34;99836.38;;;4.86;100.00
47883;BME280;37739;50.350;7.578;2023-12-20T07:53:02;99844.81;;;4.85;100.00
47883;BME280;37739;50.350;7.578;2023-12-20T07:55:31;99841.47;;;4.86;100.00
47883;BME280;37739;50.350;7.578;2023-12-20T07:57:58;99847.44;;;4.87;100.00
47883;BME280;37739;50.350;7.578;2023-12-20T08:00:24;99849.19;;;4.88;100.00
47883;BME280;37739;50.350;7.578;2023-12-20T08:02:51;99850.06;;;4.88;100.00
47883;BME280;37739;50.350;7.578;2023-12-20T08:05:17;99850.06;;;4.88;100.00
47883;BME280;37739;50.350;7.578;2023-12-20T08:07:42;99847.50;;;4.88;100.00
47883;BME280;37739;50.350;7.578;2023-12-20T08:10:08;99860.22;;;4.88;100.00
47883;BME280;37739;50.350;7.578;2023-12-20T08:12:33;99854.53;;;4.92;100.00
47883;BME280;37739;50.350;7.578;2023-12-20T08:14:59;99858.06;;;4.95;100.00
47883;BME280;37739;50.350;7.578;2023-12-20T08:17:24;99860.69;;;4.96;100.00
47883;BME280;37739;50.350;7.578;2023-12-20T08:19:51;99856.56;;;4.98;100.00
47883;BME280;37739;50.350;7.578;2023-12-20T08:22:18;99867.53;;;4.97;100.00
47883;BME280;37739;50.350;7.578;2023-12-20T08:24:48;99859.13;;;4.98;100.00
47883;BME280;37739;50.350;7.578;2023-12-20T08:27:13;99869.97;;;4.96;100.00
47883;BME280;37739;50.350;7.578;2023-12-20T08:29:39;99868.41;;;4.98;100.00
47883;BME280;37739;50.350;7.578;2023-12-20T08:32:06;99872.88;;;5.02;100.00
47883;BME280;37739;50.350;7.578;2023-12-20T08:34:37;99878.06;;;5.03;100.00
47883;BME280;37739;50.350;7.578;2023-12-20T08:37:04;99861.84;;;5.01;100.00
47883;BME280;37739;50.350;7.578;2023-12-20T08:39:30;99880.63;;;5.03;100.00
47883;BME280;37739;50.350;7.578;2023-12-20T08:41:58;99885.09;;;5.07;100.00
47883;BME280;37739;50.350;7.578;2023-12-20T08:44:23;99882.38;;;5.04;100.00
47883;BME280;37739;50.350;7.578;2023-12-20T08:46:48;99879.84;;;5.04;100.00
47883;BME280;37739;50.350;7.578;2023-12-20T08:49:14;99875.03;;;5.09;100.00
47883;BME280;37739;50.350;7.578;2023-12-20T08:51:39;99878.44;;;5.09;100.00
47883;BME280;37739;50.350;7.578;2023-12-20T08:54:06;99872.94;;;5.17;100.00
47883;BME280;37739;50.350;7.578;2023-12-20T08:56:35;99871.47;;;5.20;100.00
47883;BME280;37739;50.350;7.578;2023-12-20T08:59:03;99870.59;;;5.20;100.00
47883;BME280;37739;50.350;7.578;2023-12-20T09:01:28;99863.22;;;5.24;100.00
47883;BME280;37739;50.350;7.578;2023-12-20T09:03:56;99860.16;;;5.30;100.00
47883;BME280;37739;50.350;7.578;2023-12-20T09:06:21;99867.78;;;5.30;100.00
47883;BME280;37739;50.350;7.578;2023-12-20T09:08:49;99860.16;;;5.30;100.00
47883;BME280;37739;50.350;7.578;2023-12-20T09:11:14;99859.28;;;5.29;100.00
47883;BME280;37739;50.350;7.578;2023-12-20T09:13:39;99851.81;;;5.32;100.00
47883;BME280;37739;50.350;7.578;2023-12-20T09:16:05;99856.91;;;5.32;100.00
47883;BME280;37739;50.350;7.578;2023-12-20T09:18:31;99860.25;;;5.31;100.00
47883;BME280;37739;50.350;7.578;2023-12-20T09:20:56;99858.78;;;5.35;100.00
47883;BME280;37739;50.350;7.578;2023-12-20T09:23:21;99867.28;;;5.36;100.00
47883;BME280;37739;50.350;7.578;2023-12-20T09:25:46;99867.19;;;5.34;100.00
47883;BME280;37739;50.350;7.578;2023-12-20T09:28:12;99874.91;;;5.36;100.00
47883;BME280;37739;50.350;7.578;2023-12-20T09:30:39;99874.28;;;5.40;100.00
47883;BME280;37739;50.350;7.578;2023-12-20T09:33:05;99871.03;;;5.42;100.00
47883;BME280;37739;50.350;7.578;2023-12-20T09:35:33;99871.22;;;5.45;100.00
47883;BME280;37739;50.350;7.578;2023-12-20T09:37:58;99877.47;;;5.50;100.00
47883;BME280;37739;50.350;7.578;2023-12-20T09:40:26;99881.16;;;5.56;100.00
47883;BME280;37739;50.350;7.578;2023-12-20T09:42:58;99878.88;;;5.60;100.00
47883;BME280;37739;50.350;7.578;2023-12-20T09:45:31;99885.09;;;5.65;100.00
47883;BME280;37739;50.350;7.578;2023-12-20T09:47:57;99872.28;;;5.64;100.00
47883;BME280;37739;50.350;7.578;2023-12-20T09:50:23;99870.63;;;5.64;100.00
47883;BME280;37739;50.350;7.578;2023-12-20T09:52:50;99872.66;;;5.70;100.00
47883;BME280;37739;50.350;7.578;2023-12-20T09:55:17;99862.28;;;5.82;100.00
47883;BME280;37739;50.350;7.578;2023-12-20T09:57:44;99865.09;;;5.86;100.00
47883;BME280;37739;50.350;7.578;2023-12-20T10:00:13;99866.78;;;6.01;99.51
47883;BME280;37739;50.350;7.578;2023-12-20T10:02:45;99859.72;;;6.12;98.47
47883;BME280;37739;50.350;7.578;2023-12-20T10:05:16;99851.75;;;6.20;98.06
47883;BME280;37739;50.350;7.578;2023-12-20T10:07:44;99851.53;;;6.32;97.81
47883;BME280;37739;50.350;7.578;2023-12-20T10:10:10;99848.59;;;6.41;96.92
47883;BME280;37739;50.350;7.578;2023-12-20T10:12:40;99846.41;;;6.47;96.70
47883;BME280;37739;50.350;7.578;2023-12-20T10:15:06;99843.53;;;6.57;96.36
47883;BME280;37739;50.350;7.578;2023-12-20T10:17:35;99843.06;;;6.64;96.02
47883;BME280;37739;50.350;7.578;2023-12-20T10:20:06;99833.50;;;6.77;94.71
47883;BME280;37739;50.350;7.578;2023-12-20T10:22:35;99827.22;;;6.86;94.11
47883;BME280;37739;50.350;7.578;2023-12-20T10:25:00;99830.44;;;6.99;92.65
47883;BME280;37739;50.350;7.578;2023-12-20T10:27:28;99831.50;;;7.04;92.06
47883;BME280;37739;50.350;7.578;2023-12-20T10:29:53;99839.81;;;7.16;92.10
47883;BME280;37739;50.350;7.578;2023-12-20T10:32:26;99834.47;;;7.28;91.64
47883;BME280;37739;50.350;7.578;2023-12-20T10:34:54;99839.56;;;7.12;90.83
47883;BME280;37739;50.350;7.578;2023-12-20T10:37:20;99843.78;;;6.95;91.97
47883;BME280;37739;50.350;7.578;2023-12-20T10:39:50;99829.22;;;6.76;91.92
47883;BME280;37739;50.350;7.578;2023-12-20T10:42:22;99825.16;;;6.63;91.08
47883;BME280;37739;50.350;7.578;2023-12-20T10:44:49;99815.59;;;6.59;92.28
47883;BME280;37739;50.350;7.578;2023-12-20T10:47:15;99820.41;;;6.54;92.36
47883;BME280;37739;50.350;7.578;2023-12-20T10:49:42;99815.25;;;6.53;92.44
47883;BME280;37739;50.350;7.578;2023-12-20T10:52:08;99821.16;;;6.52;92.60
47883;BME280;37739;50.350;7.578;2023-12-20T10:54:34;99817.56;;;6.48;91.60
47883;BME280;37739;50.350;7.578;2023-12-20T10:56:59;99826.69;;;6.44;91.27
47883;BME280;37739;50.350;7.578;2023-12-20T10:59:27;99832.59;;;6.43;92.00
47883;BME280;37739;50.350;7.578;2023-12-20T11:01:55;99826.56;;;6.41;92.15
47883;BME280;37739;50.350;7.578;2023-12-20T11:05:01;99822.09;;;6.37;90.32
47883;BME280;37739;50.350;7.578;2023-12-20T11:07:43;99811.00;;;6.37;90.54
47883;BME280;37739;50.350;7.578;2023-12-20T11:10:20;99815.41;;;6.39;90.72
47883;BME280;37739;50.350;7.578;2023-12-20T11:12:53;99817.88;;;6.38;90.35
47883;BME280;37739;50.350;7.578;2023-12-20T11:15:21;99817.78;;;6.36;89.91
47883;BME280;37739;50.350;7.578;2023-12-20T11:17:54;99808.44;;;6.37;90.04
47883;BME280;37739;50.350;7.578;2023-12-20T11:20:23;99811.81;;;6.36;90.21
47883;BME280;37739;50.350;7.578;2023-12-20T11:22:53;99807.66;;;6.38;90.72
47883;BME280;37739;50.350;7.578;2023-12-20T11:25:21;99796.75;;;6.40;90.46
47883;BME280;37739;50.350;7.578;2023-12-20T11:28:06;99790.69;;;6.38;89.60
47883;BME280;37739;50.350;7.578;2023-12-20T11:33:08;99782.28;;;6.39;90.47
47883;BME280;37739;50.350;7.578;2023-12-20T11:35:36;99787.50;;;6.42;90.18
47883;BME280;37739;50.350;7.578;2023-12-20T11:38:02;99786.56;;;6.40;89.99
47883;BME280;37739;50.350;7.578;2023-12-20T11:40:27;99790.97;;;6.43;89.87
47883;BME280;37739;50.350;7.578;2023-12-20T11:42:53;99787.59;;;6.44;90.19
47883;BME280;37739;50.350;7.578;2023-12-20T11:45:24;99779.19;;;6.45;90.02
47883;BME280;37739;50.350;7.578;2023-12-20T11:47:50;99777.59;;;6.47;89.91
47883;BME280;37739;50.350;7.578;2023-12-20T11:50:20;99776.00;;;6.49;90.46
47883;BME280;37739;50.350;7.578;2023-12-20T11:52:45;99777.81;;;6.52;90.05
47883;BME280;37739;50.350;7.578;2023-12-20T11:55:11;99774.13;;;6.46;89.45
47883;BME280;37739;50.350;7.578;2023-12-20T11:57:36;99780.28;;;6.50;89.81
47883;BME280;37739;50.350;7.578;2023-12-20T12:00:05;99779.59;;;6.53;90.05
47883;BME280;37739;50.350;7.578;2023-12-20T12:02:31;99770.25;;;6.53;90.53
47883;BME280;37739;50.350;7.578;2023-12-20T12:04:57;99778.00;;;6.55;90.42
47883;BME280;37739;50.350;7.578;2023-12-20T12:07:24;99775.28;;;6.52;90.38
47883;BME280;37739;50.350;7.578;2023-12-20T12:09:51;99773.59;;;6.52;90.95
47883;BME280;37739;50.350;7.578;2023-12-20T12:12:19;99772.31;;;6.44;90.84
47883;BME280;37739;50.350;7.578;2023-12-20T12:14:49;99767.41;;;6.47;91.21
47883;BME280;37739;50.350;7.578;2023-12-20T12:17:15;99770.09;;;6.50;90.85
47883;BME280;37739;50.350;7.578;2023-12-20T12:19:41;99761.78;;;6.54;91.29
47883;BME280;37739;50.350;7.578;2023-12-20T12:24:45;99752.00;;;6.62;90.80
47883;BME280;37739;50.350;7.578;2023-12-20T12:27:17;99749.53;;;6.63;91.32
47883;BME280;37739;50.350;7.578;2023-12-20T12:30:02;99750.09;;;6.58;90.71
47883;BME280;37739;50.350;7.578;2023-12-20T12:32:29;99753.53;;;6.58;90.81
47883;BME280;37739;50.350;7.578;2023-12-20T12:34:57;99747.81;;;6.62;91.55
47883;BME280;37739;50.350;7.578;2023-12-20T12:37:22;99749.41;;;6.60;90.77
47883;BME280;37739;50.350;7.578;2023-12-20T12:39:54;99753.69;;;6.61;91.26
47883;BME280;37739;50.350;7.578;2023-12-20T12:42:20;99750.09;;;6.58;91.13
47883;BME280;37739;50.350;7.578;2023-12-20T12:44:45;99750.00;;;6.56;91.32
47883;BME280;37739;50.350;7.578;2023-12-20T12:47:11;99745.00;;;6.58;91.39
47883;BME280;37739;50.350;7.578;2023-12-20T12:49:36;99743.34;;;6.58;91.51
47883;BME280;37739;50.350;7.578;2023-12-20T12:52:05;99746.69;;;6.57;91.41
47883;BME280;37739;50.350;7.578;2023-12-20T12:54:30;99742.44;;;6.58;91.32
47883;BME280;37739;50.350;7.578;2023-12-20T12:56:56;99741.59;;;6.57;91.28
47883;BME280;37739;50.350;7.578;2023-12-20T12:59:22;99736.72;;;6.62;91.45
47883;BME280;37739;50.350;7.578;2023-12-20T13:01:48;99734.16;;;6.62;91.32
47883;BME280;37739;50.350;7.578;2023-12-20T13:04:13;99726.59;;;6.63;91.13
47883;BME280;37739;50.350;7.578;2023-12-20T13:06:39;99730.91;;;6.64;90.89